首页
METAR-TAF:

METAR-TAF

机场 :

舍爾納克, 土耳其

纬度: 37-21-50N, 经度: 42-03-36E, 海拔: 621米

当前天气观测

该预报发布于4小时和51分钟前的10:50 UTC
风速8节,风向东南
温度 21°C
湿度 49%
气压 1013 hPa
能见度10公里或以上
散云层高于3500英尺

METAR: LTCV 081050Z 14008KT 9999 SCT035 21/10 Q1013

时间: 18:41 (15:41 UTC)

预报

该预报发布于2小时和1分钟前的13:40 UTC
预报有效从08日的 15点(UTC)到 08日的 24点(UTC)
风速8节,风向
能见度10公里或以上
少量云层高于4000英尺
多云层高于10000英尺
几率 40% :
短暂存在
从 08日的 21点(UTC)到 08日的 24点(UTC)
风速15节,风向西北,有时为25节阵风
少量云层高于2500英尺, 积雨云.
多云层高于3500英尺
多云层高于9000英尺
小阵雨

TAF: LTCV 081340Z 0815/0824 10008KT 9999 FEW040 BKN100 PROB40 TEMPO 0821/0824 32015G25KT -SHRA FEW025CB BKN035 BKN090

超过4000个机场的气象观测和天气预报(METAR&TAF报告)。

可查询的气象台以黄色和红色小点在地图上表示。

将鼠标移到小点上方,可查看气象台名称。

然后点击查看天气观测和预报。

如需切换地图:点击带黑十字的绿色按钮放大地图;点击带横线的绿色按钮缩小地图;或者点击绿色箭头查看邻近地区的地图。


METAR-TAF: